createdAt,value
2022-10-20T00:01:55.223Z,99932.41
2022-10-20T00:04:22.025Z,99926.22
2022-10-20T00:06:48.907Z,99936.59
2022-10-20T00:09:16.160Z,99932.25
2022-10-20T00:11:46.075Z,99924.44
2022-10-20T00:14:13.253Z,99932.16
2022-10-20T00:16:41.075Z,99933.00
2022-10-20T00:19:08.065Z,99926.00
2022-10-20T00:21:35.535Z,99932.94
2022-10-20T00:24:03.788Z,99921.53
2022-10-20T00:26:38.221Z,99934.44
2022-10-20T00:29:05.169Z,99946.56
2022-10-20T00:31:32.583Z,99936.97
2022-10-20T00:33:59.542Z,99943.09
2022-10-20T00:36:26.352Z,99948.19
2022-10-20T00:39:04.612Z,99955.09
2022-10-20T00:41:32.486Z,99955.06
2022-10-20T00:44:22.022Z,99955.88
2022-10-20T00:46:48.911Z,99949.63
2022-10-20T00:49:20.942Z,99953.97
2022-10-20T00:51:49.221Z,99952.25
2022-10-20T00:54:20.861Z,99962.56
2022-10-20T00:56:50.039Z,99961.63
2022-10-20T00:59:20.244Z,99963.31
2022-10-20T01:01:47.136Z,99960.56
2022-10-20T01:04:15.182Z,99952.78
2022-10-20T01:06:42.011Z,99949.06
2022-10-20T01:09:09.147Z,99951.78
2022-10-20T01:11:41.737Z,99950.84
2022-10-20T01:14:33.376Z,99950.94
2022-10-20T01:17:24.381Z,99936.13
2022-10-20T01:20:14.627Z,99948.97
2022-10-20T01:23:02.716Z,99943.78
2022-10-20T01:25:57.304Z,99950.59
2022-10-20T01:28:42.010Z,99952.19
2022-10-20T01:31:27.099Z,99947.59
2022-10-20T01:34:09.932Z,99958.72
2022-10-20T01:36:44.516Z,99959.44
2022-10-20T01:39:18.226Z,99951.69
2022-10-20T01:41:53.332Z,99953.28
2022-10-20T01:44:22.806Z,99956.69
2022-10-20T01:46:50.181Z,99955.69
2022-10-20T01:49:17.182Z,99957.31
2022-10-20T01:51:43.986Z,99959.97
2022-10-20T01:54:26.793Z,99964.03
2022-10-20T01:57:27.594Z,99970.97
2022-10-20T01:59:57.390Z,99966.69
2022-10-20T02:02:38.942Z,99965.56
2022-10-20T02:05:15.453Z,99972.47
2022-10-20T02:07:43.236Z,99975.16
2022-10-20T02:10:16.771Z,99963.66
2022-10-20T02:12:47.542Z,99971.56
2022-10-20T02:15:20.538Z,99969.97
2022-10-20T02:17:53.320Z,99974.22
2022-10-20T02:20:20.364Z,99979.41
2022-10-20T02:22:48.716Z,99980.47
2022-10-20T02:25:15.664Z,99981.25
2022-10-20T02:27:47.143Z,99978.72
2022-10-20T02:30:17.475Z,99986.56
2022-10-20T02:32:49.752Z,99988.28
2022-10-20T02:35:29.823Z,99977.88
2022-10-20T02:37:57.553Z,99977.91
2022-10-20T02:40:24.823Z,99992.91
2022-10-20T02:42:51.685Z,99994.69
2022-10-20T02:45:18.911Z,99999.03
2022-10-20T02:47:45.807Z,99999.19
2022-10-20T02:50:13.122Z,100005.34
2022-10-20T02:52:41.364Z,100011.41
2022-10-20T02:55:08.765Z,100008.75
2022-10-20T02:57:35.881Z,100008.00
2022-10-20T03:00:03.734Z,100008.00
2022-10-20T03:02:30.704Z,100015.94
2022-10-20T03:04:57.507Z,100009.88
2022-10-20T03:07:24.364Z,100011.59
2022-10-20T03:09:51.211Z,100015.03
2022-10-20T03:12:18.062Z,100016.75
2022-10-20T03:14:45.621Z,100012.44
2022-10-20T03:17:12.396Z,100011.41
2022-10-20T03:19:41.043Z,100004.53
2022-10-20T03:22:07.908Z,100010.38
2022-10-20T03:24:34.702Z,100004.34
2022-10-20T03:27:01.643Z,100001.78
2022-10-20T03:29:28.511Z,100005.13
2022-10-20T03:31:55.373Z,99999.75
2022-10-20T03:34:22.270Z,100000.47
2022-10-20T03:36:49.083Z,100002.88
2022-10-20T03:39:16.116Z,99999.25
2022-10-20T03:41:42.895Z,99998.44
2022-10-20T03:44:11.265Z,100001.00
2022-10-20T03:46:38.083Z,100011.53
2022-10-20T03:49:05.193Z,100006.81
2022-10-20T03:51:32.046Z,100006.53
2022-10-20T03:53:58.989Z,100003.03
2022-10-20T03:56:25.818Z,100003.59
2022-10-20T03:58:52.748Z,100008.75
2022-10-20T04:01:24.683Z,100002.47
2022-10-20T04:03:51.503Z,100011.88
2022-10-20T04:06:18.411Z,100024.09
2022-10-20T04:08:45.369Z,100014.59
2022-10-20T04:11:12.523Z,100012.91
2022-10-20T04:13:39.608Z,100025.03
2022-10-20T04:16:06.928Z,100026.66
2022-10-20T04:18:33.824Z,100013.47
2022-10-20T04:21:00.781Z,100027.22
2022-10-20T04:23:27.650Z,100019.38
2022-10-20T04:25:54.456Z,100017.75
2022-10-20T04:28:21.539Z,100016.63
2022-10-20T04:30:49.223Z,100025.94
2022-10-20T04:33:16.405Z,100027.69
2022-10-20T04:35:43.284Z,100026.84
2022-10-20T04:38:10.198Z,100026.84
2022-10-20T04:40:37.091Z,100027.63
2022-10-20T04:43:03.954Z,100013.63
2022-10-20T04:45:30.773Z,100027.53
2022-10-20T04:47:57.591Z,100024.69
2022-10-20T04:50:24.471Z,100026.25
2022-10-20T04:52:51.531Z,100027.28
2022-10-20T04:55:18.676Z,100028.22
2022-10-20T04:57:45.535Z,100028.31
2022-10-20T05:00:13.010Z,100041.25
2022-10-20T05:02:39.779Z,100039.34
2022-10-20T05:05:07.003Z,100040.50
2022-10-20T05:07:34.069Z,100043.88
2022-10-20T05:10:01.208Z,100049.22
2022-10-20T05:12:28.612Z,100040.00
2022-10-20T05:14:55.471Z,100041.16
2022-10-20T05:17:22.399Z,100046.78
2022-10-20T05:19:49.274Z,100050.00
2022-10-20T05:22:16.100Z,100052.28
2022-10-20T05:24:42.995Z,100059.69
2022-10-20T05:27:09.801Z,100053.34
2022-10-20T05:29:36.584Z,100057.28
2022-10-20T05:32:24.735Z,100056.16
2022-10-20T05:34:51.518Z,100062.22
2022-10-20T05:37:18.417Z,100063.91
2022-10-20T05:39:45.344Z,100075.31
2022-10-20T05:42:12.276Z,100077.13
2022-10-20T05:44:39.083Z,100088.91
2022-10-20T05:47:05.889Z,100087.69
2022-10-20T05:49:32.682Z,100098.34
2022-10-20T05:51:59.583Z,100093.47
2022-10-20T05:54:26.467Z,100100.59
2022-10-20T05:56:53.245Z,100104.94
2022-10-20T05:59:20.038Z,100106.72
2022-10-20T06:01:49.691Z,100113.75
2022-10-20T06:04:24.753Z,100119.81
2022-10-20T06:06:52.873Z,100123.16
2022-10-20T06:09:20.677Z,100133.28
2022-10-20T06:11:48.031Z,100134.41
2022-10-20T06:14:15.108Z,100135.00
2022-10-20T06:16:41.953Z,100133.31
2022-10-20T06:19:09.144Z,100139.91
2022-10-20T06:21:37.816Z,100126.34
2022-10-20T06:24:06.222Z,100146.25
2022-10-20T06:26:36.797Z,100134.19
2022-10-20T06:29:06.122Z,100141.75
2022-10-20T06:31:41.748Z,100137.22
2022-10-20T06:34:13.422Z,100145.50
2022-10-20T06:36:42.215Z,100142.28
2022-10-20T06:39:13.084Z,100148.88
2022-10-20T06:41:40.237Z,100147.56
2022-10-20T06:44:07.625Z,100146.66
2022-10-20T06:46:36.795Z,100144.41
2022-10-20T06:49:08.278Z,100146.13
2022-10-20T06:51:35.928Z,100161.88
2022-10-20T06:54:03.364Z,100152.22
2022-10-20T06:56:32.203Z,100158.72
2022-10-20T06:59:00.760Z,100163.94
2022-10-20T07:01:36.268Z,100169.81
2022-10-20T07:04:13.800Z,100174.38
2022-10-20T07:06:43.157Z,100180.25
2022-10-20T07:09:15.084Z,100180.41
2022-10-20T07:11:42.443Z,100180.66
2022-10-20T07:14:12.667Z,100184.06
2022-10-20T07:16:39.622Z,100174.97
2022-10-20T07:19:06.452Z,100176.69
2022-10-20T07:21:36.495Z,100182.41
2022-10-20T07:24:06.385Z,100174.03
2022-10-20T07:26:36.253Z,100180.28
2022-10-20T07:29:04.143Z,100180.69
2022-10-20T07:31:34.867Z,100181.94
2022-10-20T07:34:28.245Z,100175.09
2022-10-20T07:36:50.184Z,100188.31
2022-10-20T07:39:17.187Z,100192.47
2022-10-20T07:41:45.777Z,100188.66
2022-10-20T07:44:12.805Z,100189.06
2022-10-20T07:46:39.826Z,100182.94
2022-10-20T07:49:23.968Z,100201.81
2022-10-20T07:51:53.416Z,100189.63
2022-10-20T07:54:20.247Z,100197.00
2022-10-20T07:56:47.259Z,100193.38
2022-10-20T07:59:14.543Z,100192.97
2022-10-20T08:01:41.999Z,100194.13
2022-10-20T08:04:08.926Z,100189.44
2022-10-20T08:06:36.182Z,100188.97
2022-10-20T08:09:03.461Z,100193.03
2022-10-20T08:11:30.471Z,100197.13
2022-10-20T08:13:57.278Z,100197.06
2022-10-20T08:16:31.040Z,100195.88
2022-10-20T08:19:02.691Z,100187.25
2022-10-20T08:21:29.526Z,100186.81
2022-10-20T08:23:56.387Z,100185.22
2022-10-20T08:26:26.024Z,100191.03
2022-10-20T08:28:54.659Z,100190.44
2022-10-20T08:31:22.093Z,100205.97
2022-10-20T08:33:52.659Z,100202.47
2022-10-20T08:36:20.235Z,100201.13
2022-10-20T08:38:47.087Z,100198.16
2022-10-20T08:41:22.148Z,100200.66
2022-10-20T08:43:52.438Z,100194.09
2022-10-20T08:46:21.033Z,100193.94
2022-10-20T08:48:49.112Z,100193.22
2022-10-20T08:51:25.311Z,100196.59
2022-10-20T08:53:55.958Z,100183.81
2022-10-20T08:56:29.411Z,100188.50
2022-10-20T08:58:57.004Z,100191.53
2022-10-20T09:01:27.551Z,100187.19
2022-10-20T09:04:02.934Z,100191.16
2022-10-20T09:06:33.687Z,100183.69
2022-10-20T09:09:00.817Z,100194.75
2022-10-20T09:11:49.293Z,100186.00
2022-10-20T09:14:19.327Z,100179.00
2022-10-20T09:16:59.763Z,100186.00
2022-10-20T09:19:28.714Z,100182.47
2022-10-20T09:21:58.454Z,100181.22
2022-10-20T09:24:30.275Z,100189.81
2022-10-20T09:27:16.148Z,100185.50
2022-10-20T09:29:43.020Z,100190.81
2022-10-20T09:32:49.361Z,100184.47
2022-10-20T09:35:30.148Z,100197.41
2022-10-20T09:38:11.771Z,100192.47
2022-10-20T09:41:13.731Z,100196.75
2022-10-20T09:43:57.149Z,100188.75
2022-10-20T09:46:49.585Z,100190.06
2022-10-20T09:49:44.817Z,100194.31
2022-10-20T09:52:24.820Z,100183.88
2022-10-20T09:54:56.545Z,100190.72
2022-10-20T09:57:23.614Z,100190.91
2022-10-20T09:59:52.957Z,100185.53
2022-10-20T10:02:19.837Z,100186.72
2022-10-20T10:04:49.137Z,100188.75
2022-10-20T10:07:21.962Z,100196.50
2022-10-20T10:09:56.519Z,100186.91
2022-10-20T10:12:25.252Z,100186.69
2022-10-20T10:15:08.351Z,100182.13
2022-10-20T10:17:44.700Z,100175.69
2022-10-20T10:20:11.461Z,100166.41
2022-10-20T10:22:39.872Z,100177.59
2022-10-20T10:25:14.826Z,100174.63
2022-10-20T10:27:58.428Z,100176.34
2022-10-20T10:30:37.619Z,100177.84
2022-10-20T10:33:26.066Z,100177.44
2022-10-20T10:35:53.237Z,100169.72
2022-10-20T10:38:20.581Z,100168.94
2022-10-20T10:41:12.343Z,100168.13
2022-10-20T10:43:39.103Z,100158.28
2022-10-20T10:46:07.310Z,100162.63
2022-10-20T10:49:07.860Z,100161.66
2022-10-20T10:51:59.415Z,100156.84
2022-10-20T10:54:40.356Z,100149.97
2022-10-20T10:57:28.755Z,100144.94
2022-10-20T10:59:58.932Z,100141.47
2022-10-20T11:02:40.929Z,100141.06
2022-10-20T11:05:32.292Z,100132.47
2022-10-20T11:07:59.027Z,100132.84
2022-10-20T11:10:47.684Z,100127.47
2022-10-20T11:13:17.448Z,100133.22
2022-10-20T11:15:59.410Z,100126.66
2022-10-20T11:18:44.788Z,100114.72
2022-10-20T11:21:50.249Z,100121.75
2022-10-20T11:24:47.508Z,100118.88
2022-10-20T11:27:19.373Z,100117.66
2022-10-20T11:30:09.769Z,100117.91
2022-10-20T11:32:42.547Z,100107.69
2022-10-20T11:35:29.472Z,100117.78
2022-10-20T11:38:17.292Z,100113.47
2022-10-20T11:40:54.880Z,100112.38
2022-10-20T11:43:33.450Z,100106.84
2022-10-20T11:46:23.735Z,100107.53
2022-10-20T11:48:53.419Z,100109.16
2022-10-20T11:51:33.579Z,100095.56
2022-10-20T11:54:26.590Z,100103.59
2022-10-20T11:57:19.588Z,100104.69
2022-10-20T12:00:10.611Z,100095.66
2022-10-20T12:02:59.233Z,100094.84
2022-10-20T12:06:00.125Z,100093.03
2022-10-20T12:08:48.720Z,100101.31
2022-10-20T12:11:44.547Z,100097.47
2022-10-20T12:14:14.416Z,100093.00
2022-10-20T12:16:53.692Z,100093.03
2022-10-20T12:19:34.974Z,100089.56
2022-10-20T12:22:14.992Z,100083.31
2022-10-20T12:24:53.785Z,100083.16
2022-10-20T12:27:25.650Z,100077.22
2022-10-20T12:30:42.484Z,100081.47
2022-10-20T12:33:18.437Z,100077.25
2022-10-20T12:36:17.144Z,100077.91
2022-10-20T12:38:50.985Z,100076.16
2022-10-20T12:41:34.063Z,100075.97
2022-10-20T12:44:05.081Z,100074.66
2022-10-20T12:46:34.182Z,100072.75
2022-10-20T12:49:11.121Z,100076.25
2022-10-20T12:51:51.100Z,100080.06
2022-10-20T12:54:35.030Z,100073.00
2022-10-20T12:57:23.629Z,100076.34
2022-10-20T12:59:50.504Z,100065.97
2022-10-20T13:02:17.624Z,100073.91
2022-10-20T13:05:01.997Z,100068.38
2022-10-20T13:07:47.109Z,100066.81
2022-10-20T13:10:38.974Z,100073.34
2022-10-20T13:13:05.723Z,100075.84
2022-10-20T13:15:43.734Z,100078.59
2022-10-20T13:18:13.524Z,100069.50
2022-10-20T13:20:49.422Z,100059.56
2022-10-20T13:23:18.939Z,100057.88
2022-10-20T13:25:55.378Z,100063.19
2022-10-20T13:28:25.228Z,100054.84
2022-10-20T13:30:54.769Z,100053.31
2022-10-20T13:34:04.059Z,100057.94
2022-10-20T13:36:38.168Z,100060.91
2022-10-20T13:39:22.278Z,100057.66
2022-10-20T13:42:15.517Z,100065.81
2022-10-20T13:44:53.621Z,100062.25
2022-10-20T13:47:47.874Z,100066.66
2022-10-20T13:50:22.851Z,100064.16
2022-10-20T13:53:12.761Z,100061.53
2022-10-20T13:56:02.198Z,100065.13
2022-10-20T13:58:29.150Z,100060.00
2022-10-20T14:01:00.959Z,100047.84
2022-10-20T14:03:30.058Z,100050.41
2022-10-20T14:05:59.118Z,100059.19
2022-10-20T14:08:26.663Z,100050.44
2022-10-20T14:11:00.318Z,100040.00
2022-10-20T14:13:30.952Z,100053.16
2022-10-20T14:15:59.943Z,100046.19
2022-10-20T14:18:33.004Z,100054.13
2022-10-20T14:21:02.780Z,100054.09
2022-10-20T14:23:37.461Z,100050.59
2022-10-20T14:26:11.150Z,100056.75
2022-10-20T14:28:41.233Z,100048.88
2022-10-20T14:31:12.123Z,100040.19
2022-10-20T14:33:45.189Z,100046.25
2022-10-20T14:36:30.873Z,100030.56
2022-10-20T14:39:01.553Z,100046.28
2022-10-20T14:41:33.016Z,100039.34
2022-10-20T14:44:07.866Z,100042.00
2022-10-20T14:46:42.195Z,100023.69
2022-10-20T14:49:19.241Z,100029.84
2022-10-20T14:54:22.044Z,100031.59
2022-10-20T14:56:53.446Z,100035.97
2022-10-20T14:59:23.883Z,100034.25
2022-10-20T15:02:10.714Z,100032.50
2022-10-20T15:04:43.272Z,100039.50
2022-10-20T15:07:22.311Z,100043.84
2022-10-20T15:09:53.580Z,100039.50
2022-10-20T15:12:32.204Z,100045.59
2022-10-20T15:15:19.936Z,100036.00
2022-10-20T15:17:49.969Z,100040.34
2022-10-20T15:20:34.439Z,100037.72
2022-10-20T15:23:09.720Z,100036.84
2022-10-20T15:25:53.522Z,100039.47
2022-10-20T15:28:49.875Z,100041.22
2022-10-20T15:31:21.358Z,100033.34
2022-10-20T15:33:48.770Z,100028.13
2022-10-20T15:36:21.746Z,100033.31
2022-10-20T15:38:49.846Z,100032.41
2022-10-20T15:41:19.419Z,100035.88
2022-10-20T15:43:46.257Z,100034.97
2022-10-20T15:46:15.709Z,100033.19
2022-10-20T15:48:43.511Z,100035.78
2022-10-20T15:51:30.461Z,100035.69
2022-10-20T15:53:58.331Z,100033.03
2022-10-20T15:56:25.710Z,100040.81
2022-10-20T15:58:52.816Z,100038.19
2022-10-20T16:01:21.453Z,100038.16
2022-10-20T16:03:49.173Z,100043.31
2022-10-20T16:06:18.168Z,100034.56
2022-10-20T16:08:47.711Z,100039.72
2022-10-20T16:11:17.370Z,100051.84
2022-10-20T16:13:44.256Z,100050.03
2022-10-20T16:16:13.778Z,100044.75
2022-10-20T16:18:40.748Z,100054.25
2022-10-20T16:21:07.726Z,100058.50
2022-10-20T16:23:42.315Z,100063.56
2022-10-20T16:26:13.227Z,100048.56
2022-10-20T16:28:40.257Z,100053.72
2022-10-20T16:31:09.659Z,100061.28
2022-10-20T16:33:37.193Z,100067.34
2022-10-20T16:38:39.177Z,100060.25
2022-10-20T16:41:10.203Z,100055.91
2022-10-20T16:43:41.998Z,100063.59
2022-10-20T16:46:11.234Z,100070.31
2022-10-20T16:48:43.851Z,100065.06
2022-10-20T16:51:15.600Z,100064.25
2022-10-20T16:53:42.728Z,100074.69
2022-10-20T16:56:09.762Z,100071.88
2022-10-20T16:58:36.639Z,100076.50
2022-10-20T17:01:08.701Z,100083.97
2022-10-20T17:03:37.820Z,100085.53
2022-10-20T17:06:06.983Z,100084.56
2022-10-20T17:08:36.181Z,100073.25
2022-10-20T17:11:06.049Z,100081.91
2022-10-20T17:13:33.898Z,100072.31
2022-10-20T17:16:10.271Z,100082.66
2022-10-20T17:18:37.571Z,100079.97
2022-10-20T17:21:04.796Z,100074.72
2022-10-20T17:23:36.264Z,100066.69
2022-10-20T17:26:07.331Z,100072.88
2022-10-20T17:28:36.485Z,100082.19
2022-10-20T17:31:06.557Z,100079.41
2022-10-20T17:33:33.600Z,100083.75
2022-10-20T17:36:01.619Z,100086.38
2022-10-20T17:38:29.541Z,100078.94
2022-10-20T17:40:56.611Z,100087.00
2022-10-20T17:43:24.101Z,100081.63
2022-10-20T17:46:01.571Z,100088.44
2022-10-20T17:48:28.632Z,100091.81
2022-10-20T17:51:04.580Z,100087.34
2022-10-20T17:53:51.756Z,100090.66
2022-10-20T17:56:24.141Z,100100.16
2022-10-20T17:58:52.059Z,100090.44
2022-10-20T18:01:22.029Z,100087.91
2022-10-20T18:09:19.732Z,100083.50
2022-10-20T18:11:49.184Z,100087.25
2022-10-20T18:14:17.256Z,100105.38
2022-10-20T18:16:44.423Z,100096.72
2022-10-20T18:19:16.724Z,100093.56
2022-10-20T18:21:43.804Z,100098.75
2022-10-20T18:24:13.726Z,100106.72
2022-10-20T18:26:40.661Z,100097.19
2022-10-20T18:29:08.913Z,100099.56
2022-10-20T18:31:37.511Z,100101.34
2022-10-20T18:34:08.402Z,100103.72
2022-10-20T18:36:40.396Z,100106.44
2022-10-20T18:39:10.895Z,100121.78
2022-10-20T18:41:40.074Z,100108.56
2022-10-20T18:44:11.034Z,100104.28
2022-10-20T18:46:39.431Z,100115.97
2022-10-20T18:49:07.431Z,100119.53
2022-10-20T18:51:36.080Z,100118.44
2022-10-20T18:54:04.475Z,100122.66
2022-10-20T18:56:31.475Z,100118.00
2022-10-20T18:59:00.761Z,100123.09
2022-10-20T19:01:30.152Z,100131.22
2022-10-20T19:03:58.350Z,100120.59
2022-10-20T19:06:31.014Z,100131.16
2022-10-20T19:09:00.564Z,100124.44
2022-10-20T19:11:33.215Z,100133.00
2022-10-20T19:14:00.832Z,100121.44
2022-10-20T19:16:30.782Z,100132.75
2022-10-20T19:19:00.003Z,100132.47
2022-10-20T19:21:28.592Z,100134.78
2022-10-20T19:24:00.032Z,100125.44
2022-10-20T19:26:29.934Z,100128.84
2022-10-20T19:29:02.305Z,100125.03
2022-10-20T19:31:33.955Z,100112.91
2022-10-20T19:34:04.126Z,100127.78
2022-10-20T19:36:30.900Z,100124.28
2022-10-20T19:38:57.898Z,100129.91
2022-10-20T19:41:24.858Z,100128.44
2022-10-20T19:43:52.219Z,100129.53
2022-10-20T19:46:20.667Z,100137.72
2022-10-20T19:48:48.051Z,100134.84
2022-10-20T19:51:16.260Z,100134.84
2022-10-20T19:53:43.146Z,100135.31
2022-10-20T19:56:10.556Z,100132.25
2022-10-20T19:58:41.433Z,100136.63
2022-10-20T20:01:11.841Z,100139.13
2022-10-20T20:03:38.810Z,100134.31
2022-10-20T20:06:17.102Z,100133.44
2022-10-20T20:08:50.614Z,100139.47
2022-10-20T20:11:27.075Z,100141.22
2022-10-20T20:14:00.395Z,100144.19
2022-10-20T20:16:28.015Z,100143.47
2022-10-20T20:18:55.445Z,100139.56
2022-10-20T20:21:23.187Z,100142.63
2022-10-20T20:24:00.169Z,100140.00
2022-10-20T20:26:32.956Z,100149.22
2022-10-20T20:28:59.947Z,100158.16
2022-10-20T20:31:27.428Z,100154.88
2022-10-20T20:33:55.109Z,100155.00
2022-10-20T20:36:22.015Z,100154.88
2022-10-20T20:38:49.853Z,100154.28
2022-10-20T20:41:18.713Z,100158.34
2022-10-20T20:43:45.635Z,100158.28
2022-10-20T20:46:18.358Z,100137.47
2022-10-20T20:48:45.650Z,100154.00
2022-10-20T20:51:13.617Z,100145.97
2022-10-20T20:53:41.183Z,100141.72
2022-10-20T20:56:13.883Z,100133.13
2022-10-20T20:58:42.091Z,100147.66
2022-10-20T21:01:13.241Z,100145.91
2022-10-20T21:03:41.191Z,100143.38
2022-10-20T21:06:10.473Z,100145.47
2022-10-20T21:08:41.085Z,100151.94
2022-10-20T21:11:10.365Z,100150.28
2022-10-20T21:13:38.465Z,100147.22
2022-10-20T21:16:24.036Z,100154.34
2022-10-20T21:18:52.834Z,100154.47
2022-10-20T21:21:22.646Z,100155.81
2022-10-20T21:23:49.639Z,100152.13
2022-10-20T21:26:18.673Z,100153.38
2022-10-20T21:28:46.500Z,100153.69
2022-10-20T21:31:17.231Z,100152.16
2022-10-20T21:33:44.323Z,100147.97
2022-10-20T21:36:16.633Z,100158.13
2022-10-20T21:38:43.915Z,100148.63
2022-10-20T21:41:26.114Z,100144.34
2022-10-20T21:43:55.769Z,100138.56
2022-10-20T21:46:29.934Z,100154.00
2022-10-20T21:49:02.493Z,100151.03
2022-10-20T21:51:36.215Z,100155.09
2022-10-20T21:54:06.064Z,100151.38
2022-10-20T21:56:37.496Z,100151.53
2022-10-20T21:59:06.095Z,100158.25
2022-10-20T22:01:33.606Z,100148.34
2022-10-20T22:04:00.844Z,100152.47
2022-10-20T22:06:28.435Z,100151.47
2022-10-20T22:08:57.895Z,100152.31
2022-10-20T22:11:30.632Z,100149.31
2022-10-20T22:13:57.806Z,100144.81
2022-10-20T22:16:30.604Z,100147.41
2022-10-20T22:19:00.391Z,100152.31
2022-10-20T22:21:28.555Z,100145.53
2022-10-20T22:23:57.382Z,100151.97
2022-10-20T22:26:27.591Z,100157.72
2022-10-20T22:28:55.358Z,100148.81
2022-10-20T22:33:33.998Z,100148.47
2022-10-20T22:36:00.802Z,100144.47
2022-10-20T22:38:27.808Z,100147.19
2022-10-20T22:41:04.510Z,100143.72
2022-10-20T22:43:31.540Z,100148.78
2022-10-20T22:45:59.199Z,100149.34
2022-10-20T22:48:26.609Z,100149.53
2022-10-20T22:51:01.193Z,100150.22
2022-10-20T22:53:28.081Z,100147.66
2022-10-20T22:55:54.976Z,100141.34
2022-10-20T22:58:23.050Z,100142.06
2022-10-20T23:00:50.352Z,100146.06
2022-10-20T23:03:17.276Z,100138.94
2022-10-20T23:05:44.084Z,100139.59
2022-10-20T23:08:11.163Z,100142.28
2022-10-20T23:10:38.078Z,100141.78
2022-10-20T23:13:05.608Z,100138.31
2022-10-20T23:15:32.689Z,100143.13
2022-10-20T23:17:59.467Z,100128.16
2022-10-20T23:20:26.301Z,100122.63
2022-10-20T23:22:53.203Z,100125.56
2022-10-20T23:25:20.104Z,100122.19
2022-10-20T23:27:47.001Z,100112.09
2022-10-20T23:30:17.943Z,100118.88
2022-10-20T23:32:44.756Z,100124.13
2022-10-20T23:35:11.886Z,100125.38
2022-10-20T23:37:40.190Z,100118.56
2022-10-20T23:40:07.828Z,100126.44
2022-10-20T23:42:35.466Z,100118.66
2022-10-20T23:45:05.186Z,100128.84
2022-10-20T23:47:32.186Z,100124.81
2022-10-20T23:50:00.667Z,100129.53
2022-10-20T23:52:27.702Z,100134.50
2022-10-20T23:54:54.528Z,100135.34
2022-10-20T23:57:21.352Z,100131.22
2022-10-20T23:59:48.171Z,100130.84
